Waarschuwingen Friesland

Code Groen. Er zijn momenteel geen waarschuwingen van kracht.

Bron: KNMI


Webcam Zuidwest  Webcam Zuidwest


Onweer radar more information blitzortung!


Regen radar more information rain snow radar


Weerstation Noordbergum

Weerstation Luyksgestel

Website Noardburgum


U vindt ons ook hier:

Het Weer Aktueel

UK Metoffice

European Weather Network

Weather Underground

AWEKAS

Citizen Weather Observer Program (CWOP)

HAMweather, WeatherForYou, PWS Weather



METAR rapporten vliegvelden


Warning: A non-numeric value encountered in /home/tjeerqo264/domains/wsnoordbergum.nl/public_html/weather2/metar/metarDisplay.php on line 166

Warning: A non-numeric value encountered in /home/tjeerqo264/domains/wsnoordbergum.nl/public_html/weather2/metar/metarDisplay.php on line 166

Warning: A non-numeric value encountered in /home/tjeerqo264/domains/wsnoordbergum.nl/public_html/weather2/metar/metarDisplay.php on line 166
   
EHLW - Leeuwarden Rnlaf, Netherlands
Afstand tot: W 17 km
Gewijzigd: 17-05-2022 21:55
Bewolking  
Bewolking  
   Wind: varieert 13 km/h
Wind: varieert 13 km/h
Temperatuur: 17°C
Dauwpunt: 13°C
Vochtigheid: 77%
Barometer: 1019 hPa
Bewolking: Bewolking
Zicht: meer dan 10 km
Bewolking: Bewolking 14000 ft
EHLW 171955Z AUTO VRB07KT 9999 OVC140 17/13 Q1019 BLU
EHMA - Awg-1 Sea, Netherlands
Afstand tot: N 31 km
Gewijzigd: 17-05-2022 21:55
Gedeeltelijk bewolkt  
Gedeeltelijk bewolkt  
   Wind: Oosten 20.4 km/h
Wind: Oosten 20.4 km/h
Temperatuur: 16°C
Dauwpunt: 12°C
Vochtigheid: 77%
Barometer: 1019 hPa
Bewolking: Gedeeltelijk bewolkt
Zicht: meer dan 10 km
Bewolking: Gedeeltelijk bewolkt
EHMA 171955Z AUTO 09011KT 050V120 9999 NSC 16/12 Q1019
EHGG - Groningen/Eelde, Netherlands
Afstand tot: OZO 40 km
Gewijzigd: 17-05-2022 21:55
Gedeeltelijk bewolkt  
Gedeeltelijk bewolkt  
   Wind: ZZO 7.4 km/h
Wind: ZZO 7.4 km/h
Temperatuur: 19°C
Dauwpunt: 14°C
Vochtigheid: 73%
Barometer: 1019 hPa
Bewolking: Gedeeltelijk bewolkt
Zicht: meer dan 10 km
Bewolking: Gedeeltelijk bewolkt
EHGG 171955Z AUTO 15004KT 9999 NSC 19/14 Q1019 NOSIG
EHVL - Vlieland Island, Netherlands
Afstand tot: W 72 km
Gewijzigd: 17-05-2022 21:55
Bewolking  
Bewolking  
   Wind: Oosten 24.1 km/h
Wind: Oosten 24.1 km/h
Temperatuur: 17°C
Dauwpunt: 14°C
Vochtigheid: 83%
Barometer: 1018 hPa
Bewolking: Bewolking
Zicht: meer dan 10 km
Bewolking: Gedeeltelijk bewolkt 16000 ft,
Bewolking 22000 ft
EHVL 171955Z AUTO 08013KT 9999 SCT160 OVC220 17/14 Q1018 BLU
EHMG - L9-Ff-1 Sea, Netherlands
Afstand tot: WNW 81 km
Gewijzigd: 17-05-2022 21:55
Gedeeltelijk bewolkt  
Gedeeltelijk bewolkt  
   Wind: OZO 31.5 km/h
Wind: OZO 31.5 km/h
Temperatuur: 14°C
Dauwpunt: 11°C
Vochtigheid: 82%
Barometer: 1020 hPa
Bewolking: Gedeeltelijk bewolkt
Zicht: meer dan 10 km
Bewolking: Gedeeltelijk bewolkt
EHMG 171955Z AUTO 11017KT 9999 NSC 14/11 Q1020
EHKD - De Kooy (navy), Netherlands
Afstand tot: WZW 89 km
Gewijzigd: 17-05-2022 21:55
Bewolking  
Bewolking  
   Wind: ONO 14.8 km/h
Wind: ONO 14.8 km/h
Temperatuur: 18°C
Dauwpunt: 15°C
Vochtigheid: 83%
Barometer: 1018 hPa
Bewolking: Bewolking
Zicht: meer dan 10 km
Bewolking: Bewolking 16000 ft
EHKD 171955Z AUTO 07008KT 9999 OVC160 18/15 Q1018 BLU

Script ontwikkeld door  Saratoga-weather.org Aangepast voor de template door  Weerstation Leuven

Apparatuur in gebruik:

Weerstation
Davis Vantage pro 2

Weerprogramma
Meteobridge

Weercomputer
Meteobridge Nano SD

Webleverancier
Versio

Davis Vantage pro 2

Meteobridge

Meteobridge Nano SD

Versio